Station 44063 - Annapolis, MD Image indicating link to RSS feed of recent meteorological observations for station 44063


Conditions at 44063 as of
(11:18 am EDT)
1518 GMT on 04/15/2024:
     

Click on the graph icon in the table below to see a time series plot of the last five days of that observation.

5-day plot - Wind Direction Wind Direction (WDIR):SSE ( 160 deg true )
5-day plot - Wind Speed Wind Speed (WSPD): 9.7 kts
5-day plot - Wind Gust Wind Gust (GST): 9.7 kts
5-day plot - Wave Height Wave Height (WVHT): 0.7 ft
5-day plot - Air Temperature Air Temperature (ATMP): 59.0 °F
5-day plot - Water Temperature Water Temperature (WTMP): 55.6 °F
5-day plot - Salinity Salinity (SAL): 4.19 psu
5-day plot - Wind Speed at 10 Meters Wind Speed at 10 meters (WSPD10M): 9.7 kts
5-day plot - Wind Speed at 20 Meters Wind Speed at 20 meters (WSPD20M): 11.7 kts
5-day plot -  Wind Speed, Wind Gust and Atmospheric Pressure Combined plot of Wind Speed, Gust, and Air Pressure
Previous observations
TIME
(EDT)
5-day plot - Wind Direction
WDIR
 
5-day plot - Wind Speed
WSPD
kts
5-day plot - Wind Gust
GST
kts
5-day plot - Wave Height
WVHT
ft
5-day plot - Dominant Wave Period
DPD
sec
5-day plot - Average Wave Period
APD
sec
5-day plot - Mean Wave Direction
MWD
 
5-day plot - Atmospheric Pressure
PRES
in
5-day plot - Pressure Tendency
PTDY
in
5-day plot - Air Temperature
ATMP
°F
5-day plot - Water Temperature
WTMP
°F
5-day plot - Dew Point
DEWP
°F
5-day plot - Salinity
SAL
psu
5-day plot - Visibility
VIS
nmi
5-day plot - Tide (above MLLW)
TIDE
ft
2024-04-15 11:12 amSSE 9.7 11.7 0.3----- 59.2 55.9- 4.08--
2024-04-15 11:06 amSSE 11.7 13.6 0.3----- 59.9 55.9- 4.08--
2024-04-15 11:00 amSSE 9.7 13.6 0.3----- 60.6 56.1- 4.02--
2024-04-15 10:54 amSSE 7.8 9.7 0.7----- 59.9 55.9- 4.04--
2024-04-15 10:48 amSSE 7.8 9.7 0.7----- 59.5 55.9- 4.08--
2024-04-15 10:36 amSSE 7.8 9.7 0.7----- 59.0 55.8- 4.12--
2024-04-15 10:30 amSSE 9.7 11.7 0.7----- 59.2 55.6- 4.19--
2024-04-15 10:24 amSSE 7.8 9.7 0.7----- 59.5 55.4- 4.19--
2024-04-15 10:18 am SE 5.8 7.8 0.7----- 60.4 55.2- 4.23--
2024-04-15 10:06 amSSE 3.9 5.8 0.3----- 61.0 55.2- 4.34--
2024-04-15 10:00 amSSE 5.8 5.8 0.3----- 61.3 55.0- 4.28--
2024-04-15 09:54 amSSE 3.9 5.8 0.7----- 63.1 55.2- 4.21--
2024-04-15 09:48 am S 3.9 5.8 0.7----- 65.3 55.2- 4.29--
2024-04-15 09:42 am SW 3.9 5.8 0.7----- 65.5 55.0- 4.28--
2024-04-15 09:36 am SW 3.9 3.9 0.3----- 63.7 55.0- 4.33--
2024-04-15 09:30 amSSW 3.9 3.9 0.3----- 63.0 55.2- 4.29--
2024-04-15 09:24 amSSW 1.9 3.9 0.3----- 62.6 55.0- 4.37--
2024-04-15 09:18 amWSW 1.9 3.9 0.3----- 62.4 54.9- 4.47--
2024-04-15 09:12 amWNW 3.9 3.9 0.3----- 61.9 54.9- 4.54--
2024-04-15 09:06 amWNW 3.9 5.8 0.3----- 60.8 55.0- 4.42--
2024-04-15 09:00 amNNW 1.9 3.9 0.3----- 60.4 55.0- 4.36--
2024-04-15 08:54 amNNW 3.9 5.8 0.3----- 59.5 55.0- 4.39--
2024-04-15 08:48 amNNE 1.9 3.9 0.3----- 58.1 55.0- 4.45--
2024-04-15 08:42 am NE 3.9 5.8 0.3----- 57.2 55.0- 4.54--
2024-04-15 08:36 amNNE 3.9 3.9 0.3----- 58.5 54.9- 4.61--
2024-04-15 08:30 amNNW 3.9 5.8 0.3----- 58.8 54.9- 4.61--
2024-04-15 08:24 am- 0.0 1.9 0.3----- 58.5 54.9- 4.64--
2024-04-15 08:18 amSSE 5.8 7.8 0.3----- 57.9 54.9- 4.67--
2024-04-15 08:06 am S 3.9 5.8 0.3----- 57.6 54.9- 4.70--
2024-04-15 08:00 amSSW 3.9 3.9 0.3----- 57.0 54.9- 4.70--
2024-04-15 07:54 amSSE 5.8 5.8 0.3----- 56.8 54.9- 4.88--
2024-04-15 07:48 amSSE 5.8 5.8 0.3----- 57.2 54.9- 4.92--
2024-04-15 07:36 am S 3.9 5.8 0.3----- 58.1 54.9- 5.00--
2024-04-15 07:30 amSSE 5.8 7.8 0.3----- 59.2 54.9- 5.00--
2024-04-15 07:24 amSSE 3.9 5.8 0.3----- 59.0 55.0- 4.91--
2024-04-15 07:18 amSSE 5.8 5.8 0.3----- 58.1 55.0- 4.90--
2024-04-15 07:12 am S 7.8 9.7------ 58.5 55.0- 4.88--
2024-04-15 07:06 am S 7.8 9.7------ 58.5 55.2- 4.86--
2024-04-15 07:00 am S 5.8 7.8------ 57.0 55.2- 4.87--
2024-04-15 06:54 am S 1.9 3.9 0.3----- 57.6 55.2- 4.87--
2024-04-15 06:48 amSSE 5.8 7.8 0.3----- 59.5 55.2- 4.87--
2024-04-15 06:36 amSSW 5.8 7.8 0.3----- 59.0 55.2- 4.86--
2024-04-15 06:30 amSSW 7.8 9.7 0.3----- 58.6 55.2- 4.87--
2024-04-15 06:24 amSSW 9.7 11.7 0.3----- 58.8 55.2- 4.87--
2024-04-15 06:12 amSSW 9.7 11.7 0.3----- 58.6 55.0- 4.84--
2024-04-15 06:06 amSSW 7.8 9.7 0.3----- 58.6 55.0- 4.83--
2024-04-15 06:00 am SW 5.8 7.8 0.3----- 58.3 55.0- 4.83--
2024-04-15 05:54 am S 5.8 7.8 0.0----- 58.5 55.0- 4.81--
2024-04-15 05:48 am S 7.8 7.8 0.0----- 58.6 55.0- 4.81--
2024-04-15 05:42 amSSW 5.8 7.8 0.0----- 59.4 55.0- 4.80--
2024-04-15 05:36 am SW 7.8 9.7 0.0----- 57.9 55.0- 4.80--
2024-04-15 05:30 am S 5.8 7.8 0.0----- 58.5 55.0- 4.79--
2024-04-15 05:24 am S 7.8 9.7 0.0----- 58.6 55.0- 4.78--
2024-04-15 05:12 amSSW 13.6 17.5 0.3----- 57.7 55.2- 4.77--
2024-04-15 05:06 amSSE 9.7 11.7 0.3----- 57.4 55.2- 4.76--
2024-04-15 05:00 amSSE 9.7 13.6 0.3----- 57.7 55.2- 4.76--
2024-04-15 04:54 amSSW 7.8 9.7 0.3----- 58.5 55.2- 4.71--
2024-04-15 04:48 amSSE 5.8 5.8 0.3----- 58.6 55.2- 4.69--
2024-04-15 04:42 am W 1.9 3.9 0.3----- 58.5 55.4- 4.67--
2024-04-15 04:36 amWSW 1.9 1.9 0.3----- 59.4 55.4- 4.67--
2024-04-15 04:30 amWSW 1.9 3.9 0.3----- 60.1 55.4- 4.66--
2024-04-15 04:24 amWNW 3.9 3.9 0.3----- 60.3 55.6- 4.65--
2024-04-15 04:18 amWNW 3.9 5.8 0.3----- 61.0 55.6- 4.65--
2024-04-15 04:12 am NW 3.9 5.8 0.3----- 61.3 55.8- 4.64--
2024-04-15 04:06 amNNW 1.9 3.9 0.3----- 61.2 55.8- 4.64--
2024-04-15 04:00 amNNW 1.9 3.9 0.3----- 60.1 55.8- 4.63--
2024-04-15 03:54 amNNW 11.7 13.6 0.7----- 59.4 55.8- 4.63--
2024-04-15 03:48 am E 3.9 5.8 0.7----- 59.4 55.8- 4.63--
2024-04-15 03:42 amSSW 1.9 7.8 0.7----- 57.6 55.8- 4.64--
2024-04-15 03:36 am W 3.9 5.8 0.7----- 57.0 55.8- 4.64--
2024-04-15 03:30 amESE 5.8 7.8 0.7----- 57.0 55.9- 4.63--
2024-04-15 03:24 am E 3.9 5.8 0.7----- 57.6 55.9- 4.63--
2024-04-15 03:18 am E 3.9 5.8 0.7----- 57.7 55.8- 4.64--
2024-04-15 03:12 am E 3.9 3.9 0.7----- 58.1 55.8- 4.64--
2024-04-15 03:06 amENE 3.9 5.8 0.7----- 58.3 55.8- 4.65--
2024-04-15 03:00 amENE 5.8 7.8 0.7----- 58.6 55.8- 4.65--
2024-04-15 02:54 am NE 5.8 7.8 0.7----- 58.6 55.4- 4.68--
2024-04-15 02:48 amNNE 9.7 9.7 0.7----- 58.3 55.4- 4.66--
2024-04-15 02:42 am NE 7.8 9.7 0.7----- 58.6 55.4- 4.67--
2024-04-15 02:36 amENE 5.8 7.8 0.7----- 58.6 55.4- 4.65--
2024-04-15 02:30 am E 5.8 5.8 0.7----- 59.2 55.4- 4.65--
2024-04-15 02:24 am E 5.8 7.8 0.7----- 59.5 55.4- 4.64--
2024-04-15 02:18 am NE 3.9 3.9 0.7----- 59.9 55.4- 4.64--
2024-04-15 02:12 amENE 5.8 9.7 1.0 3---- 60.8 55.4- 4.64--
2024-04-15 02:06 amENE 9.7 11.7 1.0 3---- 60.3 55.6- 4.63--
2024-04-15 02:00 amENE 9.7 11.7 1.0 3---- 59.7 55.6- 4.65--
2024-04-15 01:54 am NE 7.8 9.7 1.0 3---- 58.6 55.6- 4.65--
2024-04-15 01:48 amNNE 5.8 7.8 1.0 3---- 58.8 55.6- 4.64--
2024-04-15 01:42 am NE 3.9 5.8 1.0 3---- 58.8 55.6- 4.61--
2024-04-15 01:36 amNNE 5.8 7.8 1.0 3---- 59.0 55.8- 4.59--
2024-04-15 01:30 amNNE 3.9 5.8 1.0 3---- 58.6 55.8- 4.59--
2024-04-15 01:24 am N 3.9 5.8 1.0 3---- 59.4 55.8- 4.59--
2024-04-15 01:18 amNNE 3.9 5.8 1.0 3---- 61.2 55.6- 4.59--
2024-04-15 01:06 amNNE 5.8 9.7 1.0 3---- 61.2 55.8- 4.60--
2024-04-15 01:00 am N 3.9 3.9 1.0 3---- 60.1 55.8- 4.61--
2024-04-15 12:54 am NW 5.8 7.8 1.0 3---- 59.9 55.8- 4.61--
2024-04-15 12:42 amENE 5.8 7.8 1.0 3---- 59.7 55.8- 4.61--
2024-04-15 12:36 am N 5.8 7.8 1.0 2---- 59.4 55.8- 4.61--
2024-04-15 12:30 amENE 3.9 5.8 1.0 2---- 61.0 55.8- 4.61--
2024-04-15 12:24 am E 5.8 7.8 1.0 2---- 62.4 55.8- 4.60--
2024-04-15 12:12 am NE 7.8 11.7 1.0 3---- 62.6 55.8- 4.60--
2024-04-15 12:06 amNNE 9.7 11.7 1.0 3---- 64.9 55.8- 4.61--
2024-04-15 12:00 amSSE 3.9 5.8 1.0 3---- 66.9 55.8- 4.62--
2024-04-14 11:54 pm S 5.8 9.7 0.7----- 66.2 55.8- 4.62--
2024-04-14 11:48 pmENE 5.8 7.8 0.7----- 63.3 55.8- 4.63--
2024-04-14 11:42 pmENE 13.6 17.5 0.7----- 63.3 55.8- 4.62--
2024-04-14 11:36 pmENE 13.6 17.5 1.0 3---- 59.7 55.8- 4.61--
2024-04-14 11:30 pm NE 17.5 21.4 1.0 3---- 58.3 55.8- 4.61--
2024-04-14 11:24 pm SE 1.9 5.8 1.0 3---- 57.6 55.8- 4.61--
2024-04-14 11:18 pm S 5.8 7.8 1.0 3---- 57.7 55.6- 4.62--
2024-04-14 11:12 pm S 5.8 7.8 1.0 4---- 58.1 55.6- 4.62--
2024-04-14 11:06 pm S 5.8 7.8 1.0 4---- 58.3 55.6- 4.63--
2024-04-14 11:00 pm S 5.8 9.7 1.0 4---- 58.3 55.6- 4.64--
2024-04-14 10:54 pm S 5.8 9.7 1.0 3---- 58.5 55.6- 4.64--
2024-04-14 10:48 pmSSE 5.8 7.8 1.0 3---- 58.5 55.4- 4.66--
2024-04-14 10:42 pmSSE 5.8 7.8 1.0 3---- 58.5 55.4- 4.67--
2024-04-14 10:36 pmSSE 5.8 9.7 1.0 3---- 58.6 55.4- 4.68--
2024-04-14 10:30 pmSSE 5.8 7.8 1.0 3---- 58.6 55.4- 4.68--
2024-04-14 10:24 pmSSE 3.9 7.8 1.0 3---- 58.8 55.4- 4.69--
2024-04-14 10:18 pm S 3.9 5.8 1.0 3---- 59.4 55.4- 4.70--
2024-04-14 10:12 pm S 5.8 7.8 1.0 4---- 60.6 55.4- 4.71--
2024-04-14 10:06 pm S 5.8 9.7 1.0 4---- 61.0 55.4- 4.71--
2024-04-14 10:00 pmSSE 7.8 9.7 1.0 4---- 63.0 55.2- 4.71--
2024-04-14 09:54 pmSSW 7.8 11.7 1.0 3---- 68.2 55.2- 4.72--
2024-04-14 09:48 pmSSW 7.8 9.7 1.0 3---- 68.2 55.2- 4.72--
2024-04-14 09:42 pmSSW 7.8 11.7 1.0 3---- 68.7 55.2- 4.73--
2024-04-14 09:36 pmSSW 7.8 11.7 1.0 3---- 68.7 55.2- 4.73--
2024-04-14 09:30 pmSSW 9.7 11.7 1.0 2---- 69.4 55.2- 4.73--
2024-04-14 09:24 pmSSW 7.8 11.7 1.0 2---- 68.2 55.2- 4.73--
2024-04-14 09:18 pm SW 7.8 11.7 1.0 2---- 68.7 55.2- 4.74--
2024-04-14 09:12 pmSSW 7.8 9.7 1.0 2---- 68.7 55.2- 4.74--
2024-04-14 09:06 pmSSW 9.7 11.7 1.0 2---- 69.4 55.2- 4.74--
2024-04-14 09:00 pmSSW 9.7 13.6 1.0 2---- 69.4 55.2- 4.74--
2024-04-14 08:54 pmSSW 9.7 13.6 1.0 3---- 69.6 55.2- 4.73--
2024-04-14 08:48 pmSSW 9.7 13.6 1.0 3---- 69.3 55.2- 4.73--
2024-04-14 08:42 pmSSW 11.7 17.5 1.0 3---- 69.8 55.2- 4.72--
2024-04-14 08:36 pmSSW 11.7 17.5 1.0 3---- 69.4 55.2- 4.72--
2024-04-14 08:30 pmSSW 13.6 17.5 1.0 3---- 69.8 55.2- 4.71--
2024-04-14 08:24 pmSSW 15.5 19.4 1.0 3---- 69.1 55.2- 4.71--
2024-04-14 08:18 pmSSW 13.6 17.5 1.0 3---- 67.3 55.4- 4.70--
2024-04-14 08:12 pm S 11.7 17.5 1.0 3---- 61.0 55.4- 4.69--
2024-04-14 08:06 pm S 13.6 17.5 1.0 3---- 59.7 55.4- 4.68--
2024-04-14 08:00 pm S 15.5 17.5 1.0 3---- 59.5 55.4- 4.67--
2024-04-14 07:54 pm S 15.5 19.4 1.0 3---- 60.1 55.4- 4.66--
2024-04-14 07:48 pm S 17.5 21.4 1.0 3---- 60.4 55.4- 4.65--
2024-04-14 07:36 pm S 17.5 25.3 1.0 3---- 59.9 55.4- 4.64--
2024-04-14 07:30 pm S 17.5 19.4 1.3 3---- 59.5 55.4- 4.65--
2024-04-14 07:18 pm S 15.5 21.4 1.3 3---- 60.4 55.4- 4.66--
2024-04-14 07:12 pm S 15.5 19.4 1.3 4---- 59.9 55.4- 4.66--
2024-04-14 07:06 pm S 15.5 21.4 1.3 4---- 59.9 55.4- 4.67--
2024-04-14 07:00 pm S 15.5 19.4 1.3 4---- 60.1 55.4- 4.68--
2024-04-14 06:54 pm S 15.5 19.4 1.3 4---- 59.9 55.4- 4.67--
2024-04-14 06:48 pm S 15.5 19.4 1.3 4---- 60.1 55.4- 4.67--
2024-04-14 06:36 pm S 13.6 21.4 1.3 4---- 61.0 55.4- 4.67--
2024-04-14 06:30 pm S 15.5 23.3 1.3 3---- 60.6 55.4- 4.66--
2024-04-14 06:24 pm S 15.5 19.4 1.3 3---- 60.3 55.4- 4.67--
2024-04-14 06:18 pm S 15.5 21.4 1.3 3---- 60.6 55.2- 4.67--
2024-04-14 06:12 pm S 17.5 21.4------ 60.4 55.4- 4.69--
2024-04-14 06:06 pm S 15.5 21.4------ 60.3 55.4- 4.70--
2024-04-14 06:00 pm S 17.5 23.3------ 60.8 55.4- 4.75--
2024-04-14 05:54 pm S 15.5 21.4 1.3 4---- 60.1 55.4- 4.76--
2024-04-14 05:48 pm S 15.5 23.3 1.3 4---- 59.7 55.4- 4.77--
2024-04-14 05:36 pm S 17.5 21.4 1.3 4---- 60.1 55.4- 4.78--
2024-04-14 05:30 pm S 17.5 21.4 1.3 4---- 59.9 55.4- 4.78--
2024-04-14 05:24 pm S 13.6 19.4 1.3 4---- 59.4 55.4- 4.78--
2024-04-14 05:18 pm S 17.5 21.4 1.3 4---- 59.4 55.4- 4.79--
2024-04-14 05:12 pm S 17.5 21.4------ 59.0 55.4- 4.79--
2024-04-14 05:06 pm S 17.5 21.4------ 58.8 55.4- 4.79--
2024-04-14 05:00 pm S 17.5 23.3------ 58.8 55.4- 4.79--
2024-04-14 04:54 pm S 17.5 23.3 1.3 4---- 58.5 55.4- 4.79--
2024-04-14 04:42 pm S 17.5 21.4 1.3 4---- 57.4 55.4- 4.79--
2024-04-14 04:36 pm S 19.4 23.3 1.3 4---- 57.6 55.4- 4.79--
2024-04-14 04:30 pm S 19.4 23.3 1.6 4---- 57.9 55.4- 4.79--
2024-04-14 04:24 pm S 17.5 23.3 1.6 4---- 57.7 55.4- 4.79--
2024-04-14 04:18 pm S 17.5 21.4 1.6 4---- 57.7 55.4- 4.79--
2024-04-14 04:06 pm S 19.4 25.3------ 58.5 55.4- 4.79--
2024-04-14 04:00 pm S 21.4 25.3------ 58.5 55.4- 4.77--
2024-04-14 03:54 pm S 19.4 23.3 1.3 4---- 58.5 55.4- 4.76--
2024-04-14 03:42 pm S 19.4 23.3 1.3 4---- 55.9 55.4- 4.76--
2024-04-14 03:36 pm S 17.5 23.3 1.3 4---- 57.7 55.4- 4.74--
2024-04-14 03:30 pm S 19.4 25.3------ 58.1 55.2- 4.73--
2024-04-14 03:24 pm S 17.5 23.3------ 57.6 55.2- 4.73--
2024-04-14 03:18 pm S 19.4 23.3------ 57.4 55.2- 4.72--
2024-04-14 03:06 pm S 19.4 25.3 1.3 4---- 58.3 55.2- 4.72--
2024-04-14 03:00 pm S 19.4 25.3 1.3 4---- 58.3 55.0- 4.72--
2024-04-14 02:54 pm S 19.4 27.2------ 58.1 55.0- 4.72--
2024-04-14 02:48 pm S 21.4 25.3------ 57.9 55.0- 4.72--
2024-04-14 02:36 pm S 19.4 25.3------ 57.2 54.9- 4.71--
2024-04-14 02:30 pm S 17.5 25.3 1.0 3---- 57.4 54.9- 4.70--
2024-04-14 02:24 pm S 17.5 21.4 1.0 3---- 57.6 54.9- 4.70--
2024-04-14 02:12 pm S 15.5 21.4 1.3 3---- 57.6 54.9- 4.71--
2024-04-14 02:06 pm S 13.6 17.5 1.3 3---- 57.6 54.7- 4.71--
2024-04-14 02:00 pm S 13.6 17.5 1.3 3---- 57.6 54.7- 4.71--
2024-04-14 01:54 pm S 13.6 21.4 1.0 3---- 57.7 54.7- 4.71--
2024-04-14 01:48 pm S 15.5 21.4 1.0 3---- 57.7 54.9- 4.72--
2024-04-14 01:36 pm S 13.6 17.5 1.0 3---- 57.7 54.7- 4.73--
2024-04-14 01:30 pm S 15.5 21.4 1.0 3---- 58.1 54.7- 4.74--
2024-04-14 01:24 pm S 15.5 19.4 1.0 3---- 58.1 54.7- 4.74--
2024-04-14 01:18 pm S 15.5 19.4 1.0 3---- 57.9 54.7- 4.75--
2024-04-14 01:12 pm S 15.5 19.4 1.0 3---- 57.7 54.7- 4.75--
2024-04-14 01:06 pm S 15.5 19.4 1.0 3---- 57.6 54.5- 4.75--
2024-04-14 01:00 pm S 15.5 19.4 1.0 3---- 57.6 54.5- 4.76--
2024-04-14 12:54 pm S 15.5 19.4 1.0 2---- 57.7 54.5- 4.76--
2024-04-14 12:48 pm S 15.5 19.4 1.0 2---- 57.7 54.5- 4.76--
2024-04-14 12:36 pm S 15.5 19.4 1.0 2---- 57.4 54.5- 4.76--
2024-04-14 12:30 pm S 15.5 21.4 0.7----- 57.2 54.3- 4.75--
2024-04-14 12:24 pm S 13.6 17.5 0.7----- 57.2 54.3- 4.75--
2024-04-14 12:12 pm S 13.6 19.4 0.7----- 57.2 54.3- 4.75--
2024-04-14 12:06 pm S 13.6 15.5 0.7----- 57.6 54.5- 4.74--
2024-04-14 12:00 pm S 13.6 17.5 0.7----- 57.7 54.5- 4.73--
2024-04-14 11:54 am S 13.6 19.4------ 57.6 54.5- 4.73--
2024-04-14 11:48 am S 15.5 19.4------ 57.2 54.5- 4.72--
2024-04-14 11:36 am S 13.6 17.5------ 57.4 54.3- 4.71--
2024-04-14 11:30 am S 13.6 15.5 0.7----- 57.7 54.3- 4.70--
2024-04-14 11:24 am S 11.7 13.6 0.7----- 57.2 54.3- 4.65--
2024-04-14 11:18 am S 11.7 15.5 0.7----- 57.4 54.3- 4.62--
2024-04-14 11:06 am S 13.6 17.5------ 57.2 54.1- 4.59--
2024-04-14 11:00 am S 13.6 15.5------ 57.2 54.1- 4.64--
2024-04-14 10:54 am S 11.7 15.5------ 57.0 54.1- 4.57--

Disclaimer: Ocean current directions are reported to the nearest 10 degrees and speeds are measured to the nearest whole centimeter per second.

Ocean Current Data for 44063

Unit of Measure:   Time Zone:   
11:18 am EDT11:12 am EDT11:06 am EDT11:00 am EDT10:54 am EDT10:48 am EDT10:36 am EDT10:30 am EDT
Depth
ft
Dir
°
Speed
kts
Dir
°
Speed
kts
Dir
°
Speed
kts
Dir
°
Speed
kts
Dir
°
Speed
kts
Dir
°
Speed
kts
Dir
°
Speed
kts
Dir
°
Speed
kts
10 230 0.16230 0.17230 0.17230 0.19230 0.19220 0.19240 0.21230 0.23

Previous (up to 48) reports of ocean current data for 44063

Ocean Current Stick Plots are available in metric units only:

All Instruments - 1-day plot - ocean current 1-day plot     3-day plot - ocean current 3-day plot     5-day plot - ocean current 5-day plot     


Ocean Conditions at 44063 as of
(11:18 am EDT)
1518 GMT on 04/15/2024:

These oceanographic data are displayed in rounded times.

     

Click on the graph icon in the table below to see a time series plot of the last five days of that observation.

Depth (DEPTH): 3.3 ft
5-day plot - Ocean Temperature Ocean Temperature (OTMP):55.60 °F
5-day plot - Salinity Salinity (SAL): 4.19 psu
Previous observations
TIME
(EDT)
DEPTH
ft
5-day plot - Ocean Temperature
OTMP
°F
5-day plot - Conductivity
COND
mS/cm
5-day plot - Salinity
SAL
psu
5-day plot - Oxygen Concentration
O2%
%
5-day plot - Oxygen Concentration
O2PPM
ppm
5-day plot - Chlorophyll
CLCON
ug/l
5-day plot - Turbidity
TURB
FTU
5-day plot - pH
PH
 
5-day plot - Eh
EH
mv
2024-04-15 11:12 am 3.355.99- 4.08------
2024-04-15 11:06 am 3.355.90- 4.08------
2024-04-15 11:00 am 3.356.07- 4.02------
2024-04-15 10:54 am 3.355.87- 4.04------
2024-04-15 10:48 am 3.355.87- 4.08------
2024-04-15 10:36 am 3.355.69- 4.12------
2024-04-15 10:30 am 3.355.53- 4.19------
2024-04-15 10:24 am 3.355.47- 4.19------
2024-04-15 10:18 am 3.355.27- 4.23------
2024-04-15 10:06 am 3.355.27- 4.34------
2024-04-15 10:00 am 3.355.13- 4.28------
2024-04-15 09:54 am 3.355.20- 4.21------
2024-04-15 09:48 am 3.355.13- 4.29------
2024-04-15 09:42 am 3.355.13- 4.28------
2024-04-15 09:36 am 3.355.09- 4.33------
2024-04-15 09:30 am 3.355.17- 4.29------
2024-04-15 09:24 am 3.355.11- 4.37------
2024-04-15 09:18 am 3.354.93- 4.47------
2024-04-15 09:12 am 3.354.93- 4.54------
2024-04-15 09:06 am 3.355.00- 4.42------
2024-04-15 09:00 am 3.355.00- 4.36------
2024-04-15 08:54 am 3.354.99- 4.39------
2024-04-15 08:48 am 3.354.99- 4.45------
2024-04-15 08:42 am 3.354.97- 4.54------
2024-04-15 08:36 am 3.354.91- 4.61------
2024-04-15 08:30 am 3.354.90- 4.61------
2024-04-15 08:24 am 3.354.90- 4.64------
2024-04-15 08:18 am 3.354.90- 4.67------
2024-04-15 08:06 am 3.354.84- 4.70------
2024-04-15 08:00 am 3.354.84- 4.70------
2024-04-15 07:54 am 3.354.82- 4.88------
2024-04-15 07:48 am 3.354.79- 4.92------
2024-04-15 07:36 am 3.354.79- 5.00------
2024-04-15 07:30 am 3.354.79- 5.00------
2024-04-15 07:24 am 3.354.95- 4.91------
2024-04-15 07:18 am 3.355.04- 4.90------
2024-04-15 07:12 am 3.355.13- 4.88------
2024-04-15 07:06 am 3.355.18- 4.86------
2024-04-15 07:00 am 3.355.17- 4.87------
2024-04-15 06:54 am 3.355.18- 4.87------
2024-04-15 06:48 am 3.355.20- 4.87------
2024-04-15 06:36 am 3.355.20- 4.86------
2024-04-15 06:30 am 3.355.18- 4.87------
2024-04-15 06:24 am 3.355.15- 4.87------
2024-04-15 06:12 am 3.355.11- 4.84------
2024-04-15 06:06 am 3.355.11- 4.83------
2024-04-15 06:00 am 3.355.09- 4.83------
2024-04-15 05:54 am 3.355.08- 4.81------
2024-04-15 05:48 am 3.355.08- 4.81------
2024-04-15 05:42 am 3.355.08- 4.80------
2024-04-15 05:36 am 3.355.09- 4.80------
2024-04-15 05:30 am 3.355.09- 4.79------
2024-04-15 05:24 am 3.355.13- 4.78------
2024-04-15 05:12 am 3.355.17- 4.77------
2024-04-15 05:06 am 3.355.17- 4.76------
2024-04-15 05:00 am 3.355.27- 4.76------
2024-04-15 04:54 am 3.355.22- 4.71------
2024-04-15 04:48 am 3.355.29- 4.69------
2024-04-15 04:42 am 3.355.36- 4.67------
2024-04-15 04:36 am 3.355.40- 4.67------
2024-04-15 04:30 am 3.355.47- 4.66------
2024-04-15 04:24 am 3.355.60- 4.65------
2024-04-15 04:18 am 3.355.63- 4.65------
2024-04-15 04:12 am 3.355.69- 4.64------
2024-04-15 04:06 am 3.355.71- 4.64------
2024-04-15 04:00 am 3.355.72- 4.63------
2024-04-15 03:54 am 3.355.78- 4.63------
2024-04-15 03:48 am 3.355.78- 4.63------
2024-04-15 03:42 am 3.355.80- 4.64------
2024-04-15 03:36 am 3.355.83- 4.64------
2024-04-15 03:30 am 3.355.87- 4.63------
2024-04-15 03:24 am 3.355.85- 4.63------
2024-04-15 03:18 am 3.355.83- 4.64------
2024-04-15 03:12 am 3.355.80- 4.64------
2024-04-15 03:06 am 3.355.72- 4.65------
2024-04-15 03:00 am 3.355.67- 4.65------
2024-04-15 02:54 am 3.355.42- 4.68------
2024-04-15 02:48 am 3.355.44- 4.66------
2024-04-15 02:42 am 3.355.42- 4.67------
2024-04-15 02:36 am 3.355.44- 4.65------
2024-04-15 02:30 am 3.355.45- 4.65------
2024-04-15 02:24 am 3.355.45- 4.64------
2024-04-15 02:18 am 3.355.44- 4.64------
2024-04-15 02:12 am 3.355.44- 4.64------
2024-04-15 02:06 am 3.355.49- 4.63------
2024-04-15 02:00 am 3.355.54- 4.65------
2024-04-15 01:54 am 3.355.53- 4.65------
2024-04-15 01:48 am 3.355.56- 4.64------
2024-04-15 01:42 am 3.355.63- 4.61------
2024-04-15 01:36 am 3.355.67- 4.59------
2024-04-15 01:30 am 3.355.69- 4.59------
2024-04-15 01:24 am 3.355.69- 4.59------
2024-04-15 01:18 am 3.355.63- 4.59------
2024-04-15 01:06 am 3.355.72- 4.60------
2024-04-15 01:00 am 3.355.74- 4.61------
2024-04-15 12:54 am 3.355.78- 4.61------
2024-04-15 12:42 am 3.355.81- 4.61------
2024-04-15 12:36 am 3.355.78- 4.61------
2024-04-15 12:30 am 3.355.80- 4.61------
2024-04-15 12:24 am 3.355.80- 4.60------
2024-04-15 12:12 am 3.355.78- 4.60------
2024-04-15 12:06 am 3.355.76- 4.61------
2024-04-15 12:00 am 3.355.76- 4.62------
2024-04-14 11:54 pm 3.355.78- 4.62------
2024-04-14 11:48 pm 3.355.80- 4.63------
2024-04-14 11:42 pm 3.355.76- 4.62------
2024-04-14 11:36 pm 3.355.72- 4.61------
2024-04-14 11:30 pm 3.355.71- 4.61------
2024-04-14 11:24 pm 3.355.69- 4.61------
2024-04-14 11:18 pm 3.355.65- 4.62------
2024-04-14 11:12 pm 3.355.63- 4.62------
2024-04-14 11:06 pm 3.355.62- 4.63------
2024-04-14 11:00 pm 3.355.60- 4.64------
2024-04-14 10:54 pm 3.355.56- 4.64------
2024-04-14 10:48 pm 3.355.47- 4.66------
2024-04-14 10:42 pm 3.355.44- 4.67------
2024-04-14 10:36 pm 3.355.40- 4.68------
2024-04-14 10:30 pm 3.355.38- 4.68------
2024-04-14 10:24 pm 3.355.36- 4.69------
2024-04-14 10:18 pm 3.355.35- 4.70------
2024-04-14 10:12 pm 3.355.33- 4.71------
2024-04-14 10:06 pm 3.355.31- 4.71------
2024-04-14 10:00 pm 3.355.31- 4.71------
2024-04-14 09:54 pm 3.355.29- 4.72------
2024-04-14 09:48 pm 3.355.29- 4.72------
2024-04-14 09:42 pm 3.355.27- 4.73------
2024-04-14 09:36 pm 3.355.27- 4.73------
2024-04-14 09:30 pm 3.355.26- 4.73------
2024-04-14 09:24 pm 3.355.26- 4.73------
2024-04-14 09:18 pm 3.355.24- 4.74------
2024-04-14 09:12 pm 3.355.24- 4.74------
2024-04-14 09:06 pm 3.355.24- 4.74------
2024-04-14 09:00 pm 3.355.24- 4.74------
2024-04-14 08:54 pm 3.355.24- 4.73------
2024-04-14 08:48 pm 3.355.26- 4.73------
2024-04-14 08:42 pm 3.355.27- 4.72------
2024-04-14 08:36 pm 3.355.27- 4.72------
2024-04-14 08:30 pm 3.355.29- 4.71------
2024-04-14 08:24 pm 3.355.31- 4.71------
2024-04-14 08:18 pm 3.355.31- 4.70------
2024-04-14 08:12 pm 3.355.33- 4.69------
2024-04-14 08:06 pm 3.355.35- 4.68------
2024-04-14 08:00 pm 3.355.36- 4.67------
2024-04-14 07:54 pm 3.355.36- 4.66------
2024-04-14 07:48 pm 3.355.38- 4.65------
2024-04-14 07:36 pm 3.355.40- 4.64------
2024-04-14 07:30 pm 3.355.36- 4.65------
2024-04-14 07:24 pm 3.355.35- 4.66------
2024-04-14 07:18 pm 3.355.35- 4.66------
2024-04-14 07:12 pm 3.355.35- 4.67------
2024-04-14 07:06 pm 3.355.33- 4.68------
2024-04-14 07:00 pm 3.355.35- 4.67------
2024-04-14 06:54 pm 3.355.36- 4.67------
2024-04-14 06:48 pm 3.355.36- 4.67------
2024-04-14 06:36 pm 3.355.35- 4.66------
2024-04-14 06:30 pm 3.355.35- 4.67------
2024-04-14 06:24 pm 3.355.33- 4.67------
2024-04-14 06:18 pm 3.355.31- 4.69------
2024-04-14 06:12 pm 3.355.33- 4.70------
2024-04-14 06:06 pm 3.355.38- 4.75------
2024-04-14 06:00 pm 3.355.36- 4.76------
2024-04-14 05:54 pm 3.355.42- 4.77------
2024-04-14 05:48 pm 3.355.44- 4.78------
2024-04-14 05:36 pm 3.355.42- 4.78------
2024-04-14 05:30 pm 3.355.42- 4.78------
2024-04-14 05:24 pm 3.355.40- 4.79------
2024-04-14 05:18 pm 3.355.40- 4.79------
2024-04-14 05:12 pm 3.355.40- 4.79------
2024-04-14 05:06 pm 3.355.40- 4.79------
2024-04-14 05:00 pm 3.355.40- 4.79------
2024-04-14 04:54 pm 3.355.38- 4.79------
2024-04-14 04:42 pm 3.355.36- 4.79------
2024-04-14 04:36 pm 3.355.35- 4.79------
2024-04-14 04:30 pm 3.355.36- 4.79------
2024-04-14 04:24 pm 3.355.36- 4.79------
2024-04-14 04:18 pm 3.355.35- 4.79------
2024-04-14 04:06 pm 3.355.35- 4.77------
2024-04-14 04:00 pm 3.355.38- 4.76------
2024-04-14 03:54 pm 3.355.36- 4.76------
2024-04-14 03:42 pm 3.355.36- 4.74------
2024-04-14 03:36 pm 3.355.33- 4.73------
2024-04-14 03:30 pm 3.355.29- 4.73------
2024-04-14 03:24 pm 3.355.27- 4.72------
2024-04-14 03:18 pm 3.355.24- 4.72------
2024-04-14 03:06 pm 3.355.13- 4.72------
2024-04-14 03:00 pm 3.355.11- 4.72------
2024-04-14 02:54 pm 3.355.09- 4.72------
2024-04-14 02:48 pm 3.355.04- 4.71------
2024-04-14 02:36 pm 3.354.93- 4.70------
2024-04-14 02:30 pm 3.354.88- 4.70------
2024-04-14 02:24 pm 3.354.90- 4.71------
2024-04-14 02:12 pm 3.354.81- 4.71------
2024-04-14 02:06 pm 3.354.70- 4.71------
2024-04-14 02:00 pm 3.354.64- 4.71------
2024-04-14 01:54 pm 3.354.68- 4.72------
2024-04-14 01:48 pm 3.354.79- 4.73------
2024-04-14 01:36 pm 3.354.72- 4.74------
2024-04-14 01:30 pm 3.354.64- 4.74------
2024-04-14 01:24 pm 3.354.72- 4.75------
2024-04-14 01:18 pm 3.354.68- 4.75------
2024-04-14 01:12 pm 3.354.63- 4.75------
2024-04-14 01:06 pm 3.354.52- 4.76------
2024-04-14 01:00 pm 3.354.50- 4.76------
2024-04-14 12:54 pm 3.354.54- 4.76------
2024-04-14 12:48 pm 3.354.48- 4.76------
2024-04-14 12:36 pm 3.354.54- 4.75------
2024-04-14 12:30 pm 3.354.39- 4.75------
2024-04-14 12:24 pm 3.354.34- 4.75------
2024-04-14 12:12 pm 3.354.39- 4.74------
2024-04-14 12:06 pm 3.354.48- 4.73------
2024-04-14 12:00 pm 3.354.43- 4.73------
2024-04-14 11:54 am 3.354.41- 4.72------
2024-04-14 11:48 am 3.354.46- 4.71------
2024-04-14 11:36 am 3.354.23- 4.70------
2024-04-14 11:30 am 3.354.34- 4.65------
2024-04-14 11:24 am 3.354.32- 4.62------
2024-04-14 11:18 am 3.354.30- 4.59------
2024-04-14 11:06 am 3.354.16- 4.64------
2024-04-14 11:00 am 3.354.21- 4.57------
2024-04-14 10:54 am 3.354.18- 4.58------